createdAt,value
2018-12-25T00:00:13.757Z,2.50
2018-12-25T00:02:42.141Z,2.40
2018-12-25T00:05:10.413Z,2.40
2018-12-25T00:07:38.674Z,2.60
2018-12-25T00:10:07.241Z,2.60
2018-12-25T00:12:35.612Z,2.70
2018-12-25T00:15:04.017Z,2.60
2018-12-25T00:17:32.962Z,2.60
2018-12-25T00:20:01.298Z,2.50
2018-12-25T00:22:29.806Z,2.50
2018-12-25T00:24:58.148Z,2.60
2018-12-25T00:27:26.463Z,2.50
2018-12-25T00:29:54.749Z,2.50
2018-12-25T00:32:23.577Z,2.40
2018-12-25T00:34:51.812Z,2.40
2018-12-25T00:37:19.977Z,2.40
2018-12-25T00:39:48.353Z,2.40
2018-12-25T00:42:16.671Z,2.50
2018-12-25T00:44:45.231Z,2.60
2018-12-25T00:47:13.478Z,2.60
2018-12-25T00:49:41.709Z,2.50
2018-12-25T00:52:09.924Z,2.50
2018-12-25T00:54:38.198Z,2.40
2018-12-25T00:57:06.435Z,2.20
2018-12-25T00:59:34.633Z,2.20
2018-12-25T01:02:02.933Z,2.10
2018-12-25T01:04:31.533Z,2.10
2018-12-25T01:06:59.856Z,2.00
2018-12-25T01:09:28.133Z,1.90
2018-12-25T01:11:56.415Z,2.00
2018-12-25T01:14:24.670Z,2.00
2018-12-25T01:16:52.904Z,2.10
2018-12-25T01:19:23.464Z,2.30
2018-12-25T01:21:49.377Z,2.40
2018-12-25T01:24:19.227Z,2.50
2018-12-25T01:26:47.391Z,2.50
2018-12-25T01:29:15.611Z,2.60
2018-12-25T01:31:43.809Z,2.60
2018-12-25T01:34:12.053Z,2.60
2018-12-25T01:36:40.374Z,2.70
2018-12-25T01:39:08.542Z,2.80
2018-12-25T01:41:36.793Z,2.60
2018-12-25T01:44:05.001Z,2.60
2018-12-25T01:46:33.264Z,2.50
2018-12-25T01:49:01.525Z,2.40
2018-12-25T01:51:29.773Z,2.30
2018-12-25T01:53:57.973Z,2.40
2018-12-25T01:56:26.193Z,2.40
2018-12-25T01:58:55.314Z,2.50
2018-12-25T02:01:23.537Z,2.50
2018-12-25T02:03:51.754Z,2.50
2018-12-25T02:06:19.965Z,2.40
2018-12-25T02:08:48.237Z,2.30
2018-12-25T02:11:16.575Z,2.40
2018-12-25T02:13:44.789Z,2.40
2018-12-25T02:16:13.037Z,2.50
2018-12-25T02:18:41.838Z,2.50
2018-12-25T02:21:10.046Z,2.60
2018-12-25T02:23:38.505Z,2.60
2018-12-25T02:26:06.689Z,2.50
2018-12-25T02:28:34.988Z,2.60
2018-12-25T02:31:03.187Z,2.50
2018-12-25T02:33:32.309Z,2.40
2018-12-25T02:36:00.550Z,2.50
2018-12-25T02:38:28.777Z,2.50
2018-12-25T02:40:57.029Z,2.50
2018-12-25T02:43:25.266Z,2.50
2018-12-25T02:45:53.559Z,2.50
2018-12-25T02:48:22.702Z,2.50
2018-12-25T02:50:50.925Z,2.50
2018-12-25T02:53:19.958Z,2.50
2018-12-25T02:55:48.129Z,2.50
2018-12-25T02:58:16.312Z,2.40
2018-12-25T03:00:46.537Z,2.50
2018-12-25T03:03:13.712Z,2.50
2018-12-25T03:05:41.897Z,2.40
2018-12-25T03:08:10.060Z,2.40
2018-12-25T03:10:38.268Z,2.50
2018-12-25T03:13:07.284Z,2.50
2018-12-25T03:15:35.509Z,2.60
2018-12-25T03:18:03.706Z,2.60
2018-12-25T03:20:31.957Z,2.60
2018-12-25T03:23:00.185Z,2.50
2018-12-25T03:25:29.047Z,2.40
2018-12-25T03:27:57.836Z,2.40
2018-12-25T03:30:26.044Z,2.30
2018-12-25T03:32:54.316Z,2.10
2018-12-25T03:35:22.568Z,2.00
2018-12-25T03:37:50.808Z,2.10
2018-12-25T03:40:19.653Z,2.20
2018-12-25T03:42:48.321Z,2.20
2018-12-25T03:45:16.566Z,2.10
2018-12-25T03:47:45.686Z,2.30
2018-12-25T03:50:13.969Z,2.30
2018-12-25T03:52:42.211Z,2.30
2018-12-25T03:55:10.494Z,2.20
2018-12-25T03:57:38.683Z,2.10
2018-12-25T04:00:06.998Z,2.10
2018-12-25T04:02:35.229Z,2.00
2018-12-25T04:05:03.659Z,2.00
2018-12-25T04:07:33.036Z,2.20
2018-12-25T04:10:01.248Z,2.20
2018-12-25T04:12:29.969Z,2.30
2018-12-25T04:14:58.173Z,2.20
2018-12-25T04:17:26.403Z,2.20
2018-12-25T04:19:54.675Z,2.20
2018-12-25T04:22:22.916Z,2.20
2018-12-25T04:24:51.130Z,2.30
2018-12-25T04:27:19.393Z,2.40
2018-12-25T04:29:47.606Z,2.40
2018-12-25T04:32:15.857Z,2.20
2018-12-25T04:34:44.143Z,2.30
2018-12-25T04:37:12.388Z,2.40
2018-12-25T04:39:40.744Z,2.40
2018-12-25T04:42:08.942Z,2.40
2018-12-25T04:44:37.142Z,2.40
2018-12-25T04:47:05.389Z,2.40
2018-12-25T04:49:33.662Z,2.40
2018-12-25T04:52:02.298Z,2.40
2018-12-25T04:54:31.530Z,2.40
2018-12-25T04:56:59.746Z,2.50
2018-12-25T04:59:28.011Z,2.50
2018-12-25T05:01:56.229Z,2.40
2018-12-25T05:04:24.514Z,2.40
2018-12-25T05:06:52.755Z,2.40
2018-12-25T05:09:20.997Z,2.40
2018-12-25T05:11:50.221Z,2.30
2018-12-25T05:14:18.453Z,2.20
2018-12-25T05:16:46.787Z,2.20
2018-12-25T05:19:14.993Z,2.20
2018-12-25T05:21:43.161Z,2.10
2018-12-25T05:24:11.393Z,2.00
2018-12-25T05:26:39.614Z,2.00
2018-12-25T05:29:07.809Z,2.00
2018-12-25T05:31:36.029Z,1.90
2018-12-25T05:34:05.229Z,1.90
2018-12-25T05:36:33.515Z,1.80
2018-12-25T05:39:01.805Z,1.80
2018-12-25T05:41:30.081Z,1.70
2018-12-25T05:43:58.314Z,1.70
2018-12-25T05:46:26.538Z,1.70
2018-12-25T05:48:54.765Z,1.70
2018-12-25T05:51:22.965Z,1.70
2018-12-25T05:53:51.141Z,1.80
2018-12-25T05:56:19.442Z,1.90
2018-12-25T05:58:47.665Z,1.90
2018-12-25T06:01:16.269Z,1.80
2018-12-25T06:03:44.541Z,1.80
2018-12-25T06:06:12.831Z,1.70
2018-12-25T06:08:42.713Z,1.60
2018-12-25T06:11:09.201Z,1.70
2018-12-25T06:13:37.405Z,1.60
2018-12-25T06:16:05.624Z,1.70
2018-12-25T06:18:33.831Z,1.90
2018-12-25T06:21:02.262Z,1.90
2018-12-25T06:23:30.470Z,2.00
2018-12-25T06:25:58.708Z,2.10
2018-12-25T06:28:27.033Z,2.00
2018-12-25T06:30:55.319Z,1.90
2018-12-25T06:33:23.513Z,2.00
2018-12-25T06:35:51.758Z,2.00
2018-12-25T06:38:19.981Z,1.90
2018-12-25T06:40:48.225Z,2.00
2018-12-25T06:43:16.530Z,2.10
2018-12-25T06:45:44.749Z,2.10
2018-12-25T06:48:12.945Z,2.00
2018-12-25T06:50:41.153Z,2.00
2018-12-25T06:53:09.400Z,2.10
2018-12-25T06:55:37.590Z,2.10
2018-12-25T06:58:05.845Z,2.10
2018-12-25T07:00:34.141Z,2.10
2018-12-25T07:03:02.454Z,2.20
2018-12-25T07:05:30.740Z,2.10
2018-12-25T07:07:59.575Z,2.10
2018-12-25T07:10:27.786Z,2.20
2018-12-25T07:12:56.026Z,2.20
2018-12-25T07:15:32.842Z,2.30
2018-12-25T07:17:52.597Z,2.10
2018-12-25T07:20:20.825Z,2.20
2018-12-25T07:22:49.067Z,2.20
2018-12-25T07:25:17.351Z,2.20
2018-12-25T07:27:46.292Z,2.10
2018-12-25T07:30:14.556Z,2.20
2018-12-25T07:32:42.753Z,2.10
2018-12-25T07:35:10.969Z,2.10
2018-12-25T07:37:39.874Z,2.20
2018-12-25T07:40:08.168Z,2.20
2018-12-25T07:42:36.435Z,2.20
2018-12-25T07:45:04.797Z,2.10
2018-12-25T07:47:33.045Z,2.20
2018-12-25T07:50:01.290Z,2.30
2018-12-25T07:52:30.217Z,2.30
2018-12-25T07:54:58.478Z,2.20
2018-12-25T07:57:26.834Z,2.30
2018-12-25T07:59:56.065Z,2.30
2018-12-25T08:02:25.002Z,2.30
2018-12-25T08:04:53.220Z,2.40
2018-12-25T08:07:21.417Z,2.40
2018-12-25T08:09:49.610Z,2.40
2018-12-25T08:12:17.860Z,2.40
2018-12-25T08:14:46.065Z,2.40
2018-12-25T08:17:14.500Z,2.30
2018-12-25T08:19:42.822Z,2.20
2018-12-25T08:22:11.096Z,2.30
2018-12-25T08:24:39.280Z,2.40
2018-12-25T08:27:07.464Z,2.40
2018-12-25T08:29:35.769Z,2.40
2018-12-25T08:32:03.875Z,2.40
2018-12-25T08:34:32.213Z,2.40
2018-12-25T08:37:00.426Z,2.40
2018-12-25T08:39:28.728Z,2.50
2018-12-25T08:41:57.447Z,2.60
2018-12-25T08:44:25.689Z,2.50
2018-12-25T08:46:53.913Z,2.50
2018-12-25T08:49:22.256Z,2.60
2018-12-25T08:51:51.385Z,2.70
2018-12-25T08:54:19.607Z,2.80
2018-12-25T08:56:47.834Z,2.60
2018-12-25T08:59:16.053Z,2.60
2018-12-25T09:01:44.313Z,2.60
2018-12-25T09:04:14.594Z,2.70
2018-12-25T09:06:42.753Z,2.90
2018-12-25T09:09:10.973Z,2.70
2018-12-25T09:11:39.194Z,2.90
2018-12-25T09:14:07.462Z,3.00
2018-12-25T09:16:35.706Z,3.10
2018-12-25T09:19:03.885Z,3.10
2018-12-25T09:21:32.627Z,3.20
2018-12-25T09:24:00.841Z,3.30
2018-12-25T09:26:29.036Z,3.20
2018-12-25T09:28:57.276Z,3.30
2018-12-25T09:31:25.577Z,3.30
2018-12-25T09:33:53.806Z,3.30
2018-12-25T09:36:22.025Z,3.20
2018-12-25T09:38:50.770Z,3.20
2018-12-25T09:41:18.993Z,3.30
2018-12-25T09:43:47.286Z,3.20
2018-12-25T09:46:15.469Z,3.20
2018-12-25T09:48:43.683Z,3.20
2018-12-25T09:51:11.910Z,3.00
2018-12-25T09:53:40.142Z,3.10
2018-12-25T09:56:08.381Z,3.30
2018-12-25T09:58:36.637Z,3.30
2018-12-25T10:01:04.864Z,3.20
2018-12-25T10:03:33.085Z,3.20
2018-12-25T10:06:01.373Z,3.30
2018-12-25T10:08:29.637Z,3.40
2018-12-25T10:10:58.933Z,3.40
2018-12-25T10:13:27.297Z,3.50
2018-12-25T10:15:56.178Z,3.40
2018-12-25T10:18:25.278Z,3.30
2018-12-25T10:20:54.009Z,3.40
2018-12-25T10:23:22.276Z,3.40
2018-12-25T10:25:50.569Z,3.60
2018-12-25T10:28:18.850Z,3.50
2018-12-25T10:30:47.107Z,3.60
2018-12-25T10:33:15.357Z,3.70
2018-12-25T10:35:43.617Z,3.70
2018-12-25T10:38:11.822Z,3.70
2018-12-25T10:40:40.071Z,3.70
2018-12-25T10:43:08.308Z,3.90
2018-12-25T10:45:36.569Z,4.10
2018-12-25T10:48:04.913Z,4.00
2018-12-25T10:50:33.982Z,4.00
2018-12-25T10:53:02.307Z,4.10
2018-12-25T10:55:30.621Z,4.00
2018-12-25T10:57:58.941Z,4.00
2018-12-25T11:00:33.094Z,3.90
2018-12-25T11:03:01.960Z,4.20
2018-12-25T11:05:30.181Z,4.20
2018-12-25T11:07:58.429Z,4.20
2018-12-25T11:10:26.674Z,4.20
2018-12-25T11:12:54.938Z,4.00
2018-12-25T11:15:23.236Z,4.10
2018-12-25T11:17:51.514Z,4.10
2018-12-25T11:20:20.161Z,4.10
2018-12-25T11:22:49.158Z,4.10
2018-12-25T11:25:17.753Z,4.20
2018-12-25T11:27:45.997Z,4.20
2018-12-25T11:30:14.240Z,4.10
2018-12-25T11:32:42.469Z,4.30
2018-12-25T11:35:11.219Z,4.40
2018-12-25T11:37:39.451Z,4.40
2018-12-25T11:40:07.665Z,4.50
2018-12-25T11:45:15.144Z,4.50
2018-12-25T11:47:43.337Z,4.80
2018-12-25T11:50:11.573Z,5.00
2018-12-25T11:52:39.822Z,5.00
2018-12-25T11:55:08.067Z,4.90
2018-12-25T11:57:36.312Z,5.00
2018-12-25T12:00:04.841Z,4.90
2018-12-25T12:02:33.077Z,4.80
2018-12-25T12:05:01.340Z,4.90
2018-12-25T12:07:29.554Z,4.80
2018-12-25T12:09:57.754Z,4.80
2018-12-25T12:12:27.146Z,4.80
2018-12-25T12:14:55.404Z,4.80
2018-12-25T12:17:23.613Z,4.90
2018-12-25T12:19:51.834Z,4.90
2018-12-25T12:22:20.093Z,4.80
2018-12-25T12:24:48.956Z,4.60
2018-12-25T12:27:17.129Z,4.60
2018-12-25T12:29:45.564Z,4.60
2018-12-25T12:32:13.763Z,4.80
2018-12-25T12:34:41.986Z,4.80
2018-12-25T12:37:10.336Z,4.80
2018-12-25T12:39:38.533Z,4.80
2018-12-25T12:42:07.637Z,4.80
2018-12-25T12:44:35.833Z,4.90
2018-12-25T12:47:04.100Z,5.10
2018-12-25T12:49:32.394Z,5.20
2018-12-25T12:52:00.594Z,5.20
2018-12-25T12:54:28.845Z,5.20
2018-12-25T12:56:57.087Z,5.10
2018-12-25T12:59:25.832Z,5.20
2018-12-25T13:01:54.740Z,5.20
2018-12-25T13:04:22.949Z,5.40
2018-12-25T13:06:51.563Z,5.40
2018-12-25T13:09:19.745Z,5.60
2018-12-25T13:11:47.966Z,5.50
2018-12-25T13:14:16.264Z,5.40
2018-12-25T13:16:44.522Z,5.40
2018-12-25T13:19:12.845Z,5.30
2018-12-25T13:21:41.482Z,5.30
2018-12-25T13:24:10.645Z,5.30
2018-12-25T13:26:38.913Z,5.30
2018-12-25T13:29:07.117Z,5.30
2018-12-25T13:31:35.313Z,5.40
2018-12-25T13:34:03.496Z,5.50
2018-12-25T13:36:31.697Z,5.50
2018-12-25T13:38:59.901Z,5.40
2018-12-25T13:41:28.965Z,5.40
2018-12-25T13:43:57.185Z,5.40
2018-12-25T13:46:25.428Z,5.50
2018-12-25T13:48:53.642Z,5.50
2018-12-25T13:51:21.878Z,5.50
2018-12-25T13:53:50.174Z,5.50
2018-12-25T13:56:18.356Z,5.60
2018-12-25T13:58:46.597Z,5.60
2018-12-25T14:01:14.792Z,5.60
2018-12-25T14:03:43.073Z,5.70
2018-12-25T14:06:11.309Z,5.60
2018-12-25T14:08:39.529Z,5.50
2018-12-25T14:11:07.729Z,5.50
2018-12-25T14:13:36.909Z,5.40
2018-12-25T14:16:06.323Z,5.40
2018-12-25T14:18:34.516Z,5.40
2018-12-25T14:21:03.470Z,5.50
2018-12-25T14:23:31.675Z,5.40
2018-12-25T14:26:00.472Z,5.40
2018-12-25T14:28:28.687Z,5.30
2018-12-25T14:30:56.922Z,5.20
2018-12-25T14:33:25.141Z,5.10
2018-12-25T14:35:53.361Z,5.00
2018-12-25T14:38:21.637Z,5.00
2018-12-25T14:40:49.866Z,5.10
2018-12-25T14:43:18.958Z,5.10
2018-12-25T14:45:48.254Z,5.10
2018-12-25T14:48:16.465Z,5.20
2018-12-25T14:50:45.693Z,5.10
2018-12-25T14:53:19.764Z,5.10
2018-12-25T14:55:42.149Z,5.10
2018-12-25T14:58:10.368Z,5.10
2018-12-25T15:00:38.634Z,5.20
2018-12-25T15:03:06.821Z,5.20
2018-12-25T15:05:35.487Z,5.20
2018-12-25T15:08:03.698Z,5.20
2018-12-25T15:10:31.965Z,5.10
2018-12-25T15:13:00.261Z,5.10
2018-12-25T15:15:28.466Z,5.10
2018-12-25T15:17:56.711Z,5.00
2018-12-25T15:20:25.529Z,5.00
2018-12-25T15:22:53.792Z,4.90
2018-12-25T15:25:21.999Z,5.00
2018-12-25T15:27:50.213Z,5.00
2018-12-25T15:30:18.409Z,5.00
2018-12-25T15:32:46.638Z,5.00
2018-12-25T15:35:16.229Z,5.00
2018-12-25T15:37:44.431Z,5.00
2018-12-25T15:40:12.597Z,4.90
2018-12-25T15:42:41.678Z,4.80
2018-12-25T15:45:09.895Z,4.80
2018-12-25T15:47:38.176Z,4.90
2018-12-25T15:50:07.113Z,4.90
2018-12-25T15:52:35.325Z,4.90
2018-12-25T15:55:03.606Z,4.90
2018-12-25T15:57:32.445Z,4.90
2018-12-25T16:00:00.670Z,4.90
2018-12-25T16:02:28.949Z,4.80
2018-12-25T16:04:57.193Z,4.80
2018-12-25T16:07:25.413Z,4.80
2018-12-25T16:09:53.697Z,4.80
2018-12-25T16:12:21.920Z,4.80
2018-12-25T16:14:50.268Z,4.90
2018-12-25T16:17:18.472Z,4.90
2018-12-25T16:19:46.693Z,4.90
2018-12-25T16:22:14.898Z,4.80
2018-12-25T16:24:44.157Z,4.80
2018-12-25T16:27:12.401Z,4.90
2018-12-25T16:29:40.635Z,4.90
2018-12-25T16:32:08.865Z,4.90
2018-12-25T16:34:37.102Z,4.90
2018-12-25T16:37:05.321Z,4.90
2018-12-25T16:39:33.586Z,4.90
2018-12-25T16:42:01.829Z,4.90
2018-12-25T16:44:30.057Z,4.90
2018-12-25T16:46:58.353Z,4.90
2018-12-25T16:49:26.580Z,4.90
2018-12-25T16:51:54.821Z,4.90
2018-12-25T16:54:23.031Z,4.90
2018-12-25T16:56:51.222Z,4.90
2018-12-25T16:59:19.483Z,5.00
2018-12-25T17:01:47.709Z,4.90
2018-12-25T17:04:16.384Z,4.90
2018-12-25T17:06:45.672Z,5.00
2018-12-25T17:09:13.997Z,4.90
2018-12-25T17:11:42.245Z,4.90
2018-12-25T17:14:10.477Z,4.90
2018-12-25T17:16:38.740Z,4.90
2018-12-25T17:19:07.466Z,4.70
2018-12-25T17:21:35.806Z,4.70
2018-12-25T17:24:04.810Z,4.70
2018-12-25T17:26:33.065Z,4.70
2018-12-25T17:29:01.250Z,4.70
2018-12-25T17:31:29.482Z,4.80
2018-12-25T17:33:57.677Z,4.80
2018-12-25T17:36:25.880Z,4.80
2018-12-25T17:38:54.177Z,4.70
2018-12-25T17:41:24.057Z,4.70
2018-12-25T17:43:52.313Z,4.60
2018-12-25T17:46:20.643Z,4.50
2018-12-25T17:48:48.875Z,4.50
2018-12-25T17:51:17.109Z,4.50
2018-12-25T17:53:45.302Z,4.50
2018-12-25T17:56:13.540Z,4.50
2018-12-25T17:58:41.771Z,4.50
2018-12-25T18:01:09.986Z,4.50
2018-12-25T18:03:38.214Z,4.50
2018-12-25T18:06:07.140Z,4.50
2018-12-25T18:08:35.389Z,4.50
2018-12-25T18:11:03.584Z,4.60
2018-12-25T18:13:31.801Z,4.60
2018-12-25T18:16:00.017Z,4.60
2018-12-25T18:18:28.277Z,4.60
2018-12-25T18:20:56.613Z,4.40
2018-12-25T18:23:24.905Z,4.30
2018-12-25T18:25:53.160Z,4.30
2018-12-25T18:28:21.417Z,4.20
2018-12-25T18:30:49.699Z,4.20
2018-12-25T18:33:18.272Z,4.20
2018-12-25T18:35:46.485Z,4.10
2018-12-25T18:38:14.690Z,4.10
2018-12-25T18:40:42.914Z,4.00
2018-12-25T18:43:11.185Z,4.00
2018-12-25T18:45:39.413Z,4.00
2018-12-25T18:48:07.645Z,4.00
2018-12-25T18:50:35.898Z,4.00
2018-12-25T18:53:04.098Z,4.00
2018-12-25T18:55:32.468Z,4.00
2018-12-25T18:58:00.709Z,3.90
2018-12-25T19:00:28.944Z,3.90
2018-12-25T19:02:57.221Z,3.90
2018-12-25T19:05:25.441Z,3.90
2018-12-25T19:07:54.311Z,3.80
2018-12-25T19:10:22.549Z,3.80
2018-12-25T19:12:50.749Z,3.80
2018-12-25T19:15:21.665Z,3.70
2018-12-25T19:17:50.388Z,3.80
2018-12-25T19:20:18.761Z,3.80
2018-12-25T19:22:47.024Z,3.80
2018-12-25T19:25:15.229Z,3.70
2018-12-25T19:27:44.954Z,3.70
2018-12-25T19:30:13.457Z,3.70
2018-12-25T19:32:43.915Z,3.70
2018-12-25T19:35:09.894Z,3.70
2018-12-25T19:37:38.935Z,3.70
2018-12-25T19:40:07.521Z,3.70
2018-12-25T19:42:35.765Z,3.70
2018-12-25T19:45:04.777Z,3.80
2018-12-25T19:47:33.714Z,3.80
2018-12-25T19:50:01.901Z,3.80
2018-12-25T19:52:30.423Z,3.80
2018-12-25T19:54:58.629Z,3.80
2018-12-25T19:57:26.880Z,3.80
2018-12-25T19:59:55.146Z,3.80
2018-12-25T20:02:26.382Z,3.80
2018-12-25T20:05:35.933Z,3.80
2018-12-25T20:08:45.768Z,3.80
2018-12-25T20:11:26.953Z,3.70
2018-12-25T20:14:05.429Z,3.70
2018-12-25T20:18:50.598Z,3.70
2018-12-25T20:23:32.101Z,3.60
2018-12-25T20:26:34.213Z,3.60
2018-12-25T20:31:35.433Z,3.40
2018-12-25T20:34:14.985Z,3.40
2018-12-25T20:38:56.351Z,3.50
2018-12-25T20:41:35.562Z,3.50
2018-12-25T20:44:13.913Z,3.40
2018-12-25T20:46:53.399Z,3.50
2018-12-25T20:51:40.986Z,3.50
2018-12-25T20:55:00.962Z,3.50
2018-12-25T20:57:41.737Z,3.50
2018-12-25T21:02:23.220Z,3.50
2018-12-25T21:05:10.611Z,3.50
2018-12-25T21:07:51.826Z,3.40
2018-12-25T21:11:46.938Z,3.50
2018-12-25T21:14:27.997Z,3.40
2018-12-25T21:19:12.571Z,3.40
2018-12-25T21:21:52.138Z,3.40
2018-12-25T21:24:31.846Z,3.40
2018-12-25T21:27:11.509Z,3.40
2018-12-25T21:29:39.741Z,3.40
2018-12-25T21:32:08.659Z,3.30
2018-12-25T21:34:36.913Z,3.30
2018-12-25T21:37:05.173Z,3.40
2018-12-25T21:39:33.480Z,3.40
2018-12-25T21:42:01.741Z,3.30
2018-12-25T21:44:30.037Z,3.30
2018-12-25T21:46:58.306Z,3.20
2018-12-25T21:49:26.572Z,3.20
2018-12-25T21:51:54.842Z,3.20
2018-12-25T21:54:23.058Z,3.20
2018-12-25T21:56:51.325Z,3.20
2018-12-25T21:59:20.505Z,3.20
2018-12-25T22:01:48.771Z,3.20
2018-12-25T22:04:18.202Z,3.20
2018-12-25T22:06:47.232Z,3.10
2018-12-25T22:09:15.454Z,3.10
2018-12-25T22:11:45.362Z,3.10
2018-12-25T22:14:11.917Z,3.20
2018-12-25T22:16:40.162Z,3.20
2018-12-25T22:19:08.353Z,3.20
2018-12-25T22:21:36.605Z,3.20
2018-12-25T22:24:05.436Z,3.20
2018-12-25T22:26:33.653Z,3.20
2018-12-25T22:29:01.982Z,3.20
2018-12-25T22:31:30.241Z,3.20
2018-12-25T22:33:58.445Z,3.20
2018-12-25T22:36:26.678Z,3.20
2018-12-25T22:38:54.970Z,3.10
2018-12-25T22:41:23.955Z,3.20
2018-12-25T22:43:52.209Z,3.10
2018-12-25T22:46:20.445Z,3.00
2018-12-25T22:48:48.686Z,3.10
2018-12-25T22:51:16.953Z,3.00
2018-12-25T22:53:45.245Z,3.00
2018-12-25T22:56:14.085Z,3.00
2018-12-25T22:58:42.988Z,3.00
2018-12-25T23:01:11.205Z,3.00
2018-12-25T23:03:39.452Z,3.00
2018-12-25T23:06:08.281Z,2.90
2018-12-25T23:08:37.509Z,2.90
2018-12-25T23:11:05.849Z,3.00
2018-12-25T23:13:34.239Z,3.00
2018-12-25T23:16:02.525Z,2.90
2018-12-25T23:18:31.223Z,2.90
2018-12-25T23:20:59.413Z,2.90
2018-12-25T23:23:27.632Z,2.90
2018-12-25T23:25:56.919Z,2.90
2018-12-25T23:28:25.505Z,2.90
2018-12-25T23:30:53.808Z,3.00
2018-12-25T23:33:22.073Z,3.00
2018-12-25T23:35:50.322Z,2.90
2018-12-25T23:38:18.750Z,2.90
2018-12-25T23:40:46.991Z,2.90
2018-12-25T23:43:15.189Z,2.90
2018-12-25T23:45:43.430Z,2.90
2018-12-25T23:48:11.673Z,2.90
2018-12-25T23:50:40.564Z,2.80
2018-12-25T23:53:08.837Z,2.80
2018-12-25T23:55:37.008Z,2.80
2018-12-25T23:58:05.237Z,2.80
